Portada
METAR-TAF:

METAR-TAF

Aeroports :

Langkawi, Malàisia

latitud: 06-20N, longitud: 099-44E, altitud: 8 m

Observació

L'informe es va fer fa 1 hora i 18 minuts, a les 23:00 UTC
Vent calma
Temperatura 27°C
Humitat 84%
Pressió 1012 hPa
Visibilitat 10 km o més
Escasses núvols a una alçada de 2600 ft

METAR: WMKL 202300Z 00000KT 9999 FEW026 27/24 Q1012

Hora: 08:18 (00:18 UTC)

Pronòstic

L'informe es va fer fa 1 hora i 18 minuts, a les 23:00 UTC
Pronòstic vàlid del 21 a les 00 UTC al 22 a les 00 UTC
Vent 6 kt del Est/Nord-Est
Visibilitat 10 km o més
Escasses núvols a una alçada de 2200 ft
Evolucionant progressivament
l' 21 a les 00 UTC al 21 a les 02 UTC
Vent 10 kt del Est
Evolucionant progressivament
l' 21 a les 10 UTC al 21 a les 12 UTC
Vent 6 kt del Nord-Est
Escasses núvols a una alçada de 2600 ft

TAF: WMKL 202300Z 2100/2200 06006KT 9999 FEW022 BECMG 2100/2102 08010KT BECMG 2110/2112 05006KT FEW026

Observacions i pronòstics meteorològics de més de 4000 aeroports (METAR i TAF).

Les estacions disponibles són els punts grocs i vermells al mapa.

Posi el ratolí al punt desitjat per veure el nom de l'estació.

Feu clic per veure les observacions i els pronòstics meteorològics.

Per canviar el mapa: feu clic els botons verds amb una creu de color negre per apropar; al botó verd amb un guió per allunyar la imatge; o en les fletxes verdes per a mapes adjacents.


METAR-TAF: